Time;durP1;ratioP1;P1;durP2;ratioP2;P2;SDS_P1;SDS_P2;PMS_P1;PMS_P2;Temp;Humidity;BMP_temperature;BMP_pressure;BME280_temperature;BME280_humidity;BME280_pressure;Samples;Min_cycle;Max_cycle;Signal;HPM_P1;HPM_P2
2022/07/26 00:03:37;;;;;;;13.10;12.40;;;;;;;18.27;100.00;101641.69;2011604;71;31445;-78
2022/07/26 00:09:22;;;;;;;13.03;12.40;;;;;;;18.29;100.00;101640.20;1998844;71;30839;-79
2022/07/26 00:15:11;;;;;;;13.60;12.90;;;;;;;18.20;100.00;101638.72;1995506;71;32872;-78
2022/07/26 00:20:57;;;;;;;13.40;12.77;;;;;;;18.23;100.00;101640.66;2006441;71;31005;-78
2022/07/26 00:26:45;;;;;;;12.83;12.27;;;;;;;18.25;100.00;101636.36;2015080;71;31474;-80
2022/07/26 00:32:29;;;;;;;12.23;11.63;;;;;;;18.23;100.00;101633.63;2000915;71;30910;-79
2022/07/26 00:38:14;;;;;;;11.97;11.37;;;;;;;18.31;100.00;101644.95;2004144;71;30960;-78
2022/07/26 00:44:00;;;;;;;13.30;12.50;;;;;;;18.29;100.00;101643.59;2009663;71;30953;-80
2022/07/26 00:49:45;;;;;;;12.80;11.90;;;;;;;18.30;100.00;101645.26;1995327;71;31479;-79
2022/07/26 00:55:30;;;;;;;13.00;12.20;;;;;;;18.37;100.00;101645.06;2015006;71;30893;-78
2022/07/26 01:01:15;;;;;;;13.20;12.30;;;;;;;18.39;100.00;101644.77;1988494;71;31306;-79
2022/07/26 01:07:00;;;;;;;13.23;12.60;;;;;;;18.35;100.00;101645.14;2015092;71;31396;-78
2022/07/26 01:12:46;;;;;;;12.53;11.93;;;;;;;18.31;100.00;101644.95;2016771;71;30888;-78
2022/07/26 01:18:33;;;;;;;13.00;12.40;;;;;;;18.30;100.00;101644.69;2009697;71;30865;-79
2022/07/26 01:24:20;;;;;;;13.43;12.47;;;;;;;18.29;100.00;101642.18;2005329;71;31350;-78
2022/07/26 01:30:06;;;;;;;13.40;12.70;;;;;;;18.24;100.00;101643.70;2016959;71;30892;-79
2022/07/26 01:35:51;;;;;;;13.27;12.57;;;;;;;18.21;100.00;101657.84;2018727;71;30997;-80
2022/07/26 01:41:36;;;;;;;14.30;13.40;;;;;;;18.28;100.00;101666.66;2013131;70;31438;-79
2022/07/26 01:47:21;;;;;;;13.73;12.87;;;;;;;18.21;100.00;101670.49;2009587;70;31463;-78
2022/07/26 01:53:06;;;;;;;12.90;12.30;;;;;;;18.27;100.00;101667.00;2006424;71;33372;-79
2022/07/26 01:58:52;;;;;;;14.00;13.40;;;;;;;18.22;100.00;101679.77;2018729;71;31459;-78
2022/07/26 02:16:42;;;;;;;14.13;13.33;;;;;;;18.16;100.00;101673.42;2013382;71;31434;-79
2022/07/26 02:22:28;;;;;;;13.17;12.50;;;;;;;18.08;100.00;101669.38;1995513;71;30823;-77
2022/07/26 02:28:12;;;;;;;13.87;13.07;;;;;;;18.06;100.00;101681.50;2010957;71;30909;-79
2022/07/26 02:33:59;;;;;;;14.07;13.47;;;;;;;18.01;100.00;101688.64;2004446;71;31329;-80
2022/07/26 02:39:44;;;;;;;15.67;14.70;;;;;;;17.97;100.00;101686.20;2006501;71;31422;-79
2022/07/26 02:45:29;;;;;;;14.63;13.63;;;;;;;17.99;100.00;101690.11;2003730;71;30908;-77
2022/07/26 02:51:14;;;;;;;15.53;14.63;;;;;;;17.95;100.00;101704.55;2009344;71;30897;-80
2022/07/26 02:56:59;;;;;;;14.93;14.03;;;;;;;17.96;100.00;101702.00;2011836;71;33345;-78
2022/07/26 03:02:44;;;;;;;14.83;14.03;;;;;;;17.94;100.00;101704.27;1950268;72;31457;-77
2022/07/26 03:08:28;;;;;;;15.63;14.73;;;;;;;17.85;100.00;101708.96;2010099;71;30935;-79
2022/07/26 03:14:13;;;;;;;17.30;16.40;;;;;;;17.83;100.00;101719.70;2009461;71;33324;-78
2022/07/26 03:19:58;;;;;;;18.37;17.27;;;;;;;17.59;100.00;101722.13;2018591;71;30906;-78
2022/07/26 03:25:44;;;;;;;17.90;17.03;;;;;;;17.67;100.00;101734.05;2004276;71;30916;-77
2022/07/26 03:31:29;;;;;;;19.47;18.27;;;;;;;17.71;100.00;101741.31;2011405;71;30974;-78
2022/07/26 03:37:16;;;;;;;20.00;19.00;;;;;;;17.59;100.00;101743.77;2006448;71;30926;-77
2022/07/26 03:43:01;;;;;;;20.20;19.20;;;;;;;17.61;100.00;101740.09;2012055;71;32997;-77
2022/07/26 03:48:46;;;;;;;22.00;20.80;;;;;;;17.59;100.00;101744.61;2015021;70;33361;-79
2022/07/26 03:54:31;;;;;;;21.67;20.63;;;;;;;17.60;100.00;101742.64;1995542;71;31414;-77
2022/07/26 04:00:16;;;;;;;22.10;20.90;;;;;;;17.55;100.00;101753.94;2005370;71;39794;-79
2022/07/26 04:06:00;;;;;;;22.97;21.77;;;;;;;17.52;100.00;101751.19;2014908;71;32837;-77
2022/07/26 04:11:46;;;;;;;22.43;21.33;;;;;;;17.51;100.00;101755.70;2013418;71;33425;-79
2022/07/26 04:17:38;;;;;;;22.83;21.60;;;;;;;17.40;100.00;101763.50;2009628;71;30924;-79
2022/07/26 04:23:26;;;;;;;23.57;22.17;;;;;;;17.45;100.00;101759.20;2015335;71;31669;-77
2022/07/26 04:29:11;;;;;;;25.27;23.90;;;;;;;17.45;100.00;101768.20;2000615;71;31475;-77
2022/07/26 04:34:56;;;;;;;26.67;25.10;;;;;;;17.41;100.00;101773.60;2016863;71;31007;-79
2022/07/26 04:40:41;;;;;;;29.00;27.50;;;;;;;17.35;100.00;101782.41;2004700;71;32809;-77
2022/07/26 04:46:26;;;;;;;29.70;28.20;;;;;;;17.34;100.00;101790.00;2013319;71;30868;-77
2022/07/26 04:52:11;;;;;;;30.90;29.10;;;;;;;17.24;100.00;101788.20;1998607;71;30868;-78
2022/07/26 04:57:56;;;;;;;33.73;31.93;;;;;;;17.28;100.00;101795.45;2009990;71;30959;-78
2022/07/26 05:03:41;;;;;;;34.20;32.30;;;;;;;17.23;100.00;101799.19;2013089;71;30861;-77
2022/07/26 05:09:26;;;;;;;36.47;34.57;;;;;;;17.23;100.00;101798.34;2014978;70;33375;-78
2022/07/26 05:15:14;;;;;;;37.27;35.33;;;;;;;17.17;100.00;101802.38;2015270;71;33413;-78
2022/07/26 05:21:00;;;;;;;41.27;39.10;;;;;;;17.08;100.00;101804.20;2018501;71;30978;-78
2022/07/26 05:26:48;;;;;;;43.77;41.57;;;;;;;16.98;100.00;101808.03;2006357;71;32879;-77
2022/07/26 05:32:35;;;;;;;47.57;45.07;;;;;;;17.02;100.00;101822.29;2011236;71;31416;-78
2022/07/26 05:38:21;;;;;;;55.13;52.33;;;;;;;16.92;100.00;101837.30;1998449;71;32844;-78
2022/07/26 05:44:08;;;;;;;57.37;54.33;;;;;;;16.84;100.00;101838.83;2005780;71;32901;-78
2022/07/26 05:49:54;;;;;;;56.63;53.67;;;;;;;16.85;100.00;101846.69;2011287;71;33354;-77
2022/07/26 05:55:38;;;;;;;56.30;53.13;;;;;;;16.77;100.00;101850.17;2012998;71;30867;-78
2022/07/26 06:01:31;;;;;;;60.00;56.70;;;;;;;16.73;100.00;101851.32;2009557;71;33477;-78
2022/07/26 06:07:17;;;;;;;58.97;55.57;;;;;;;16.90;100.00;101849.39;2016581;71;32875;-78
2022/07/26 06:13:01;;;;;;;59.10;55.60;;;;;;;17.03;100.00;101850.03;2009958;71;30805;-79
2022/07/26 06:18:49;;;;;;;58.30;55.10;;;;;;;16.97;100.00;101851.83;2008191;71;30869;-80
2022/07/26 06:24:35;;;;;;;57.77;54.60;;;;;;;16.83;100.00;101853.16;2000836;71;32750;-78
2022/07/26 06:30:23;;;;;;;59.50;56.10;;;;;;;16.84;100.00;101852.86;2004436;71;32740;-80
2022/07/26 06:36:09;;;;;;;59.17;56.10;;;;;;;17.02;100.00;101855.41;2016844;71;30947;-79
2022/07/26 06:41:56;;;;;;;59.20;56.10;;;;;;;16.99;100.00;101867.22;2016740;71;30863;-79
2022/07/26 06:47:41;;;;;;;59.47;56.17;;;;;;;17.07;100.00;101881.16;2011436;71;33368;-79
2022/07/26 06:53:27;;;;;;;59.37;56.10;;;;;;;17.20;100.00;101881.21;1997153;71;30865;-79
2022/07/26 06:59:12;;;;;;;59.00;55.83;;;;;;;17.27;100.00;101884.48;2011939;71;32798;-79
2022/07/26 07:04:56;;;;;;;55.03;52.13;;;;;;;17.57;100.00;101886.52;1997544;71;30920;-79
2022/07/26 07:10:44;;;;;;;59.10;55.87;;;;;;;17.63;100.00;101896.55;2010168;71;30815;-80
2022/07/26 07:16:29;;;;;;;58.07;55.07;;;;;;;17.47;100.00;101896.52;2000996;71;33269;-79
2022/07/26 07:22:14;;;;;;;54.30;51.60;;;;;;;17.73;100.00;101904.25;2015149;71;30896;-80
2022/07/26 07:28:00;;;;;;;56.33;53.43;;;;;;;17.68;100.00;101911.35;2006495;71;31316;-79
2022/07/26 07:33:45;;;;;;;52.40;49.60;;;;;;;18.05;100.00;101903.97;2002847;71;30872;-80
2022/07/26 07:39:30;;;;;;;52.87;50.13;;;;;;;17.95;100.00;101898.52;2002268;71;30931;-79
2022/07/26 07:45:16;;;;;;;53.07;50.30;;;;;;;17.99;100.00;101897.59;2009828;71;30864;-80
2022/07/26 07:51:01;;;;;;;49.87;47.00;;;;;;;18.11;100.00;101892.30;2006772;71;31395;-81
2022/07/26 07:56:47;;;;;;;49.73;47.07;;;;;;;18.32;100.00;101898.91;2005670;71;31453;-79
2022/07/26 08:02:31;;;;;;;51.23;48.33;;;;;;;18.47;100.00;101895.81;1968348;71;31131;-80
2022/07/26 08:08:20;;;;;;;55.67;52.77;;;;;;;18.17;100.00;101919.75;2017182;71;33398;-80
2022/07/26 08:14:05;;;;;;;59.43;56.23;;;;;;;18.00;100.00;101932.17;2006302;71;30805;-79
2022/07/26 08:19:50;;;;;;;59.83;56.73;;;;;;;17.78;100.00;101932.00;2013812;71;30910;-81
2022/07/26 08:25:35;;;;;;;59.50;56.40;;;;;;;17.82;100.00;101937.27;2000955;71;31372;-80
2022/07/26 08:31:20;;;;;;;59.60;56.50;;;;;;;17.70;100.00;101934.95;2009518;71;31417;-79
2022/07/26 08:37:06;;;;;;;59.03;55.77;;;;;;;17.79;100.00;101942.94;2006277;71;30871;-79
2022/07/26 08:42:52;;;;;;;58.27;55.17;;;;;;;18.17;100.00;101934.66;2004317;71;33389;-82
2022/07/26 08:48:40;;;;;;;52.50;49.60;;;;;;;19.12;100.00;101926.52;2015148;71;31441;-83
2022/07/26 08:54:26;;;;;;;42.13;39.87;;;;;;;19.96;100.00;101926.97;1997146;71;30898;-82
2022/07/26 09:00:20;;;;;;;38.93;36.93;;;;;;;20.16;100.00;101930.38;2008298;71;32903;-82
2022/07/26 09:06:24;;;;;;;34.40;32.60;;;;;;;20.13;100.00;101936.69;2016527;71;30933;-81
2022/07/26 09:12:17;;;;;;;35.47;33.37;;;;;;;20.56;100.00;101940.58;2009950;71;30869;-81
2022/07/26 09:18:02;;;;;;;38.87;36.27;;;;;;;19.47;100.00;101944.00;2009592;70;33302;-83
2022/07/26 09:23:48;;;;;;;38.23;36.00;;;;;;;19.59;100.00;101947.69;2004109;71;31470;-81
2022/07/26 09:29:47;;;;;;;37.67;35.50;;;;;;;19.65;100.00;101940.17;1995539;71;30796;-83
2022/07/26 09:35:36;;;;;;;32.90;31.00;;;;;;;20.30;100.00;101943.86;2006344;71;30862;-84
2022/07/26 09:41:32;;;;;;;31.60;29.70;;;;;;;20.06;100.00;101945.63;2004135;71;30899;-86
2022/07/26 09:47:27;;;;;;;28.20;26.70;;;;;;;20.25;100.00;101948.20;1992772;71;30925;-86
2022/07/26 09:53:27;;;;;;;25.40;23.90;;;;;;;21.34;100.00;101943.88;2004613;71;30851;-82
2022/07/26 09:59:15;;;;;;;26.23;24.50;;;;;;;20.60;100.00;101964.17;2016876;71;30950;-79
2022/07/26 10:05:00;;;;;;;23.70;22.30;;;;;;;20.78;100.00;101967.91;2008278;71;30852;-78
2022/07/26 10:10:48;;;;;;;24.57;23.07;;;;;;;20.61;100.00;101967.83;2007555;71;30893;-80
2022/07/26 10:16:34;;;;;;;27.73;25.73;;;;;;;20.77;100.00;101978.94;2009943;71;31386;-86
2022/07/26 10:22:27;;;;;;;31.43;29.73;;;;;;;20.14;100.00;101975.87;2002285;71;30866;-78
2022/07/26 10:28:26;;;;;;;29.50;27.50;;;;;;;20.27;100.00;101976.94;2003826;71;31416;-79
2022/07/26 10:31:31;;;;;;;26.90;25.23;;;;;;;20.35;100.00;101982.66;1972325;72;24159;-80
2022/07/26 10:37:28;;;;;;;28.73;26.93;;;;;;;19.93;100.00;101990.24;1999044;71;30808;-79
2022/07/26 10:43:31;;;;;;;29.77;27.97;;;;;;;19.78;100.00;101968.89;2018698;71;30918;-79
2022/07/26 10:49:44;;;;;;;29.27;27.57;;;;;;;19.70;100.00;101986.58;1999227;71;33341;-82
2022/07/26 10:55:30;;;;;;;29.60;27.80;;;;;;;19.54;100.00;101986.69;2011099;71;30867;-81
2022/07/26 11:01:16;;;;;;;28.27;26.77;;;;;;;19.58;100.00;101979.83;2018395;71;30877;-79
2022/07/26 11:07:02;;;;;;;24.40;23.13;;;;;;;20.12;100.00;101975.91;2005729;71;33025;-80
2022/07/26 11:12:51;;;;;;;24.27;22.90;;;;;;;20.10;100.00;101980.49;2008377;71;30898;-81
2022/07/26 11:18:38;;;;;;;23.97;22.73;;;;;;;20.34;100.00;101963.22;2004586;71;30872;-83
2022/07/26 11:24:29;;;;;;;26.20;24.67;;;;;;;20.57;100.00;101967.66;2012227;71;30960;-80
2022/07/26 11:30:18;;;;;;;27.60;25.83;;;;;;;20.26;100.00;101963.97;2017081;71;31435;-81
2022/07/26 11:36:11;;;;;;;27.37;25.70;;;;;;;19.99;100.00;101966.38;2006540;71;31296;-81
2022/07/26 11:42:11;;;;;;;27.17;25.47;;;;;;;20.19;100.00;101966.44;2016929;71;30978;-80
2022/07/26 11:48:00;;;;;;;23.80;22.30;;;;;;;20.33;100.00;101970.84;2000412;71;30964;-78
2022/07/26 11:53:45;;;;;;;21.80;20.50;;;;;;;20.66;100.00;101981.23;2013048;71;30903;-79
2022/07/26 11:59:35;;;;;;;24.17;22.67;;;;;;;20.59;100.00;101980.85;1998573;71;30915;-80
2022/07/26 12:05:23;;;;;;;22.33;20.87;;;;;;;20.49;100.00;101973.27;2004223;71;31476;-76
2022/07/26 12:11:17;;;;;;;22.43;21.03;;;;;;;20.63;100.00;101990.91;1991588;71;30902;-81
2022/07/26 12:17:14;;;;;;;21.33;20.13;;;;;;;20.59;100.00;101985.66;2016792;71;31054;-76
2022/07/26 12:23:04;;;;;;;20.37;19.27;;;;;;;21.47;100.00;101982.20;2011379;71;31396;-76
2022/07/26 12:28:46;;;;;;;22.20;21.10;;;;;;;21.13;100.00;101992.87;2005884;71;30931;-75
2022/07/26 12:34:43;;;;;;;19.50;18.40;;;;;;;21.20;100.00;101991.80;2005790;71;30907;-74
2022/07/26 12:40:33;;;;;;;19.23;18.15;;;;;;;21.77;100.00;101989.13;2015196;71;30907;-82
2022/07/26 12:46:20;;;;;;;20.60;19.05;;;;;;;22.02;100.00;101992.28;2011393;71;30963;-79
2022/07/26 12:52:05;;;;;;;20.15;18.35;;;;;;;21.88;100.00;101989.59;2007758;71;31072;-74
2022/07/26 12:57:50;;;;;;;19.02;17.82;;;;;;;21.76;100.00;101993.69;2011234;71;31414;-74
2022/07/26 13:03:37;;;;;;;17.95;16.73;;;;;;;22.13;100.00;101976.02;1938617;70;31067;-73
2022/07/26 13:09:23;;;;;;;17.00;15.72;;;;;;;22.10;100.00;101988.02;2012000;71;31001;-76
2022/07/26 13:15:10;;;;;;;17.00;16.10;;;;;;;22.09;100.00;101984.10;2011608;71;30916;-77
2022/07/26 13:20:59;;;;;;;17.60;16.60;;;;;;;21.55;100.00;101980.80;1999249;71;30843;-75
2022/07/26 13:26:46;;;;;;;16.30;15.28;;;;;;;21.32;100.00;101971.63;2009790;71;31389;-72
2022/07/26 13:32:31;;;;;;;17.00;16.10;;;;;;;21.44;100.00;101981.44;2016943;71;30999;-72
2022/07/26 13:38:18;;;;;;;15.25;14.35;;;;;;;21.97;100.00;101952.26;2013052;71;31030;-72
2022/07/26 13:44:02;;;;;;;14.05;13.05;;;;;;;22.35;100.00;101960.81;1995402;71;31001;-73
2022/07/26 13:49:47;;;;;;;13.85;13.05;;;;;;;22.43;100.00;101964.20;1992682;71;30829;-73
2022/07/26 13:55:33;;;;;;;13.78;12.75;;;;;;;22.33;100.00;101954.67;2016942;71;30916;-72
2022/07/26 14:01:18;;;;;;;12.47;11.78;;;;;;;22.50;100.00;101957.44;2007120;71;30868;-73
2022/07/26 14:07:03;;;;;;;13.83;12.65;;;;;;;22.54;100.00;101953.34;2013643;71;31376;-74
2022/07/26 14:12:49;;;;;;;13.18;12.47;;;;;;;22.60;100.00;101951.38;2015427;71;31399;-74
2022/07/26 14:18:34;;;;;;;11.80;11.10;;;;;;;22.47;100.00;101958.10;2009634;71;31518;-75
2022/07/26 14:24:19;;;;;;;12.30;11.50;;;;;;;22.38;100.00;101959.33;1991815;71;30828;-74
2022/07/26 14:30:05;;;;;;;12.80;11.88;;;;;;;22.36;100.00;101955.41;2002794;71;30887;-74
2022/07/26 14:35:50;;;;;;;11.75;11.15;;;;;;;22.71;100.00;101956.13;2013256;71;31420;-74
2022/07/26 14:41:35;;;;;;;12.50;11.65;;;;;;;22.83;100.00;101953.39;1991629;71;30823;-73
2022/07/26 14:47:20;;;;;;;12.00;11.38;;;;;;;22.85;100.00;101951.03;1995526;71;31356;-73
2022/07/26 14:53:05;;;;;;;12.50;11.65;;;;;;;22.63;100.00;101961.22;2015164;71;30957;-75
2022/07/26 14:58:50;;;;;;;12.78;11.88;;;;;;;22.64;100.00;101952.95;2005926;71;30993;-73
2022/07/26 15:04:35;;;;;;;11.48;10.68;;;;;;;22.86;100.00;101966.04;2004417;71;31398;-74
2022/07/26 15:10:27;;;;;;;12.15;11.43;;;;;;;22.69;100.00;101965.54;1995324;71;30897;-74
2022/07/26 15:16:08;;;;;;;12.13;11.33;;;;;;;23.10;100.00;101958.55;1991838;71;30826;-75
2022/07/26 15:21:54;;;;;;;11.83;11.03;;;;;;;23.18;100.00;101948.34;1999111;71;30929;-75
2022/07/26 15:27:39;;;;;;;11.60;10.82;;;;;;;23.37;100.00;101946.44;2000928;71;30927;-74
2022/07/26 15:33:26;;;;;;;11.68;11.03;;;;;;;22.13;100.00;101946.89;2016853;71;30888;-72
2022/07/26 15:39:14;;;;;;;11.90;11.20;;;;;;;22.55;100.00;101947.91;1906593;70;31205;-74
2022/07/26 15:45:00;;;;;;;11.60;10.90;;;;;;;22.72;100.00;101932.27;2004522;71;30823;-73
2022/07/26 15:50:45;;;;;;;11.75;11.05;;;;;;;23.10;100.00;101937.29;2001053;71;31342;-74
2022/07/26 15:56:31;;;;;;;11.83;11.08;;;;;;;22.52;100.00;101935.27;2011712;71;30988;-75
2022/07/26 16:02:16;;;;;;;11.88;11.15;;;;;;;22.58;100.00;101936.75;2004116;71;30885;-76
2022/07/26 16:08:01;;;;;;;11.57;10.90;;;;;;;22.64;100.00;101933.12;2015030;71;30886;-74
2022/07/26 16:13:46;;;;;;;11.88;11.18;;;;;;;22.09;100.00;101929.75;2004826;71;31329;-73
2022/07/26 16:19:31;;;;;;;12.05;11.35;;;;;;;22.40;100.00;101912.50;2006814;71;31305;-74
2022/07/26 16:25:21;;;;;;;11.95;10.93;;;;;;;22.37;100.00;101907.53;2011379;71;31361;-72
2022/07/26 16:31:06;;;;;;;12.18;11.20;;;;;;;22.58;100.00;101911.27;2017024;71;30998;-71
2022/07/26 16:36:53;;;;;;;11.78;11.05;;;;;;;22.21;100.00;101908.66;2002760;71;31338;-71
2022/07/26 16:42:38;;;;;;;10.75;10.05;;;;;;;22.20;100.00;101905.59;1995010;71;31009;-73
2022/07/26 16:48:24;;;;;;;9.80;9.00;;;;;;;22.40;100.00;101902.59;2008259;71;31364;-73
2022/07/26 16:54:09;;;;;;;11.55;10.95;;;;;;;22.47;100.00;101900.05;2010028;71;30934;-71
2022/07/26 16:59:56;;;;;;;11.03;10.30;;;;;;;22.15;100.00;101907.77;2018642;71;30939;-72
2022/07/26 17:05:42;;;;;;;11.33;10.72;;;;;;;22.03;100.00;101905.66;2017033;71;31051;-71
2022/07/26 17:11:27;;;;;;;11.63;11.03;;;;;;;22.05;100.00;101903.30;2000980;71;31292;-70
2022/07/26 17:17:12;;;;;;;13.10;12.07;;;;;;;21.88;100.00;101898.23;2006126;71;30882;-72
2022/07/26 17:22:57;;;;;;;12.07;11.48;;;;;;;22.09;100.00;101892.97;2000474;71;30888;-70
2022/07/26 17:28:41;;;;;;;12.03;11.18;;;;;;;22.13;100.00;101893.11;2015189;71;31035;-71
2022/07/26 17:34:27;;;;;;;11.50;10.80;;;;;;;21.81;100.00;101903.00;1991961;71;31327;-71
2022/07/26 17:40:15;;;;;;;11.48;10.88;;;;;;;21.95;100.00;101902.84;2016704;71;31429;-70
2022/07/26 17:46:00;;;;;;;11.38;10.78;;;;;;;21.92;100.00;101896.39;2004070;71;30872;-69
2022/07/26 17:51:45;;;;;;;11.50;10.80;;;;;;;21.83;100.00;101898.41;2000313;71;31441;-70
2022/07/26 17:57:30;;;;;;;11.08;10.48;;;;;;;21.95;100.00;101900.02;2017001;71;31435;-71
2022/07/26 18:03:15;;;;;;;12.23;11.43;;;;;;;22.54;100.00;101891.88;2015163;71;30939;-71
2022/07/26 18:09:00;;;;;;;11.15;10.58;;;;;;;22.31;100.00;101896.13;2000904;71;31307;-70
2022/07/26 18:14:45;;;;;;;12.03;11.43;;;;;;;22.07;100.00;101892.48;2013333;71;31483;-72
2022/07/26 18:20:30;;;;;;;10.80;10.30;;;;;;;22.13;100.00;101904.44;2015276;71;31403;-71
2022/07/26 18:26:15;;;;;;;10.72;10.10;;;;;;;22.21;100.00;101904.98;2011728;71;30900;-72
2022/07/26 18:32:01;;;;;;;10.93;10.43;;;;;;;22.04;100.00;101903.63;2008279;71;31348;-71
2022/07/26 18:37:51;;;;;;;11.28;10.68;;;;;;;21.62;100.00;101903.93;2015287;71;30882;-70
2022/07/26 18:43:36;;;;;;;11.40;10.70;;;;;;;21.54;100.00;101897.70;2000997;71;31386;-75
2022/07/26 18:49:21;;;;;;;10.85;10.25;;;;;;;21.57;100.00;101899.28;2014945;71;31345;-76
2022/07/26 18:55:08;;;;;;;11.05;10.43;;;;;;;21.48;100.00;101899.86;2010240;71;30815;-73
2022/07/26 19:00:53;;;;;;;11.18;10.58;;;;;;;21.11;100.00;101901.34;2013155;71;31507;-72
2022/07/26 19:06:38;;;;;;;10.80;10.20;;;;;;;21.04;100.00;101910.06;2000800;71;30819;-73
2022/07/26 19:12:23;;;;;;;10.18;9.70;;;;;;;21.02;100.00;101910.38;2006372;70;30845;-71
2022/07/26 19:18:15;;;;;;;11.55;10.85;;;;;;;20.93;100.00;101912.93;2004301;71;31454;-71
2022/07/26 19:24:00;;;;;;;11.90;10.98;;;;;;;21.02;100.00;101910.95;1995374;71;31406;-74
2022/07/26 19:29:45;;;;;;;11.00;10.40;;;;;;;20.89;100.00;101909.94;2015319;71;33455;-72
2022/07/26 19:35:31;;;;;;;11.38;10.60;;;;;;;20.80;100.00;101916.98;1991876;71;30825;-73
2022/07/26 19:41:19;;;;;;;11.55;10.85;;;;;;;20.77;100.00;101917.64;2011595;71;33342;-74
2022/07/26 19:47:04;;;;;;;11.23;10.63;;;;;;;20.77;100.00;101926.12;2006450;71;30914;-73
2022/07/26 19:52:49;;;;;;;11.43;10.67;;;;;;;20.74;100.00;101928.77;2004066;71;30873;-73
2022/07/26 19:58:33;;;;;;;12.63;11.63;;;;;;;20.59;100.00;101937.67;2011380;71;30941;-74
2022/07/26 20:04:18;;;;;;;13.33;12.20;;;;;;;20.38;100.00;101947.30;2011592;71;30893;-75
2022/07/26 20:10:04;;;;;;;13.53;12.73;;;;;;;20.58;100.00;101952.36;2015026;71;30974;-74
2022/07/26 20:15:49;;;;;;;15.07;14.17;;;;;;;20.43;100.00;101948.00;2013783;71;30839;-74
2022/07/26 20:21:34;;;;;;;16.13;15.23;;;;;;;20.32;100.00;101954.26;2011723;71;31000;-77
2022/07/26 20:27:19;;;;;;;16.47;15.43;;;;;;;20.20;100.00;101958.20;2014924;71;31003;-77
2022/07/26 20:33:04;;;;;;;15.73;14.83;;;;;;;20.11;100.00;101976.48;2015278;71;31442;-77
2022/07/26 20:38:49;;;;;;;15.80;14.70;;;;;;;20.04;100.00;101975.28;2005986;71;30910;-75
2022/07/26 20:44:35;;;;;;;17.47;16.20;;;;;;;19.94;100.00;101986.24;2014791;71;31389;-76
2022/07/26 20:50:22;;;;;;;17.43;16.33;;;;;;;19.83;100.00;101986.25;2008434;71;30936;-76
2022/07/26 20:56:09;;;;;;;18.80;17.50;;;;;;;19.56;100.00;101997.05;2014955;71;30910;-74
2022/07/26 21:01:55;;;;;;;18.60;17.60;;;;;;;19.50;100.00;101999.18;2009647;71;30980;-75
2022/07/26 21:07:40;;;;;;;19.83;18.67;;;;;;;19.34;100.00;102003.45;2008507;71;31422;-76
2022/07/26 21:13:26;;;;;;;22.70;21.33;;;;;;;19.22;100.00;102005.14;2006567;71;31410;-76
2022/07/26 21:19:10;;;;;;;26.67;25.03;;;;;;;18.91;100.00;102007.20;2011473;71;30944;-78
2022/07/26 21:24:55;;;;;;;27.63;26.13;;;;;;;18.90;100.00;102014.00;2007944;71;30884;-77
2022/07/26 21:30:40;;;;;;;29.67;27.80;;;;;;;18.74;100.00;102021.06;2009770;71;30935;-76
2022/07/26 21:36:25;;;;;;;33.33;31.17;;;;;;;18.57;100.00;102017.45;1995282;71;30809;-76
2022/07/26 21:42:10;;;;;;;34.30;32.33;;;;;;;18.55;100.00;102018.36;2009288;71;30916;-75
2022/07/26 21:47:55;;;;;;;38.63;36.53;;;;;;;18.45;100.00;102019.08;2002513;71;30943;-75
2022/07/26 21:53:40;;;;;;;42.70;40.10;;;;;;;18.37;100.00;102024.01;2013551;71;30891;-76
2022/07/26 21:59:26;;;;;;;44.83;42.30;;;;;;;18.30;100.00;102032.87;2000134;71;31011;-73
2022/07/26 22:11:14;;;;;;;52.70;49.73;;;;;;;17.97;100.00;102041.84;2016787;71;30869;-77
2022/07/26 22:16:59;;;;;;;56.37;53.17;;;;;;;18.10;100.00;102036.84;2013142;70;30918;-77
2022/07/26 22:22:44;;;;;;;61.70;58.20;;;;;;;18.10;100.00;102034.61;1999003;70;31433;-76
2022/07/26 22:28:29;;;;;;;65.13;61.63;;;;;;;18.19;100.00;102032.19;1991938;71;31306;-77
2022/07/26 22:34:14;;;;;;;69.10;65.50;;;;;;;18.06;100.00;102042.83;2004407;71;30836;-77
2022/07/26 22:39:59;;;;;;;70.63;66.63;;;;;;;17.96;100.00;102057.07;1998736;71;31462;-76
2022/07/26 22:45:44;;;;;;;74.73;70.53;;;;;;;17.78;100.00;102057.07;2007923;71;31368;-77
2022/07/26 22:51:30;;;;;;;70.83;67.00;;;;;;;17.80;100.00;102048.59;1995808;71;30826;-78
2022/07/26 22:57:18;;;;;;;69.53;65.70;;;;;;;17.85;100.00;102052.73;2012220;71;33353;-76
2022/07/26 23:03:06;;;;;;;67.00;63.17;;;;;;;17.71;100.00;102056.06;2002925;71;31444;-78
2022/07/26 23:08:53;;;;;;;69.57;65.47;;;;;;;17.59;100.00;102056.50;2024033;70;31471;-77
2022/07/26 23:14:41;;;;;;;66.00;62.00;;;;;;;17.58;100.00;102053.44;2015194;71;30951;-78
2022/07/26 23:20:32;;;;;;;68.63;64.40;;;;;;;17.51;100.00;102063.33;2048947;69;30896;-78
2022/07/26 23:26:21;;;;;;;69.83;65.63;;;;;;;17.51;100.00;102059.95;2015361;71;31337;-78
2022/07/26 23:32:08;;;;;;;67.87;63.80;;;;;;;17.38;100.00;102064.07;2012256;71;30906;-76
2022/07/26 23:37:54;;;;;;;67.23;63.00;;;;;;;17.37;100.00;102063.83;2011702;71;30824;-77
2022/07/26 23:43:40;;;;;;;70.27;66.17;;;;;;;17.39;100.00;102061.53;2003899;71;30988;-77
2022/07/26 23:49:24;;;;;;;68.67;64.47;;;;;;;17.37;100.00;102066.63;2014916;71;31122;-76
2022/07/26 23:55:11;;;;;;;67.47;63.47;;;;;;;17.17;100.00;102077.55;1995501;71;30818;-76
